createdAt,value
2022-09-28T00:00:42.186Z,14.81
2022-09-28T00:01:44.556Z,14.84
2022-09-28T00:02:46.523Z,14.81
2022-09-28T00:03:51.426Z,14.78
2022-09-28T00:04:53.143Z,14.78
2022-09-28T00:06:03.163Z,14.81
2022-09-28T00:07:04.871Z,14.77
2022-09-28T00:08:06.643Z,14.76
2022-09-28T00:09:08.456Z,14.76
2022-09-28T00:10:10.421Z,14.74
2022-09-28T00:11:15.262Z,14.76
2022-09-28T00:12:17.004Z,14.73
2022-09-28T00:13:19.110Z,14.73
2022-09-28T00:14:21.683Z,14.73
2022-09-28T00:15:24.640Z,14.73
2022-09-28T00:16:31.738Z,14.75
2022-09-28T00:17:34.097Z,14.73
2022-09-28T00:18:36.262Z,14.73
2022-09-28T00:19:40.051Z,14.73
2022-09-28T00:20:41.831Z,14.70
2022-09-28T00:21:43.620Z,14.69
2022-09-28T00:22:45.650Z,14.68
2022-09-28T00:24:06.094Z,14.68
2022-09-28T00:25:08.702Z,14.63
2022-09-28T00:26:10.494Z,14.64
2022-09-28T00:27:12.436Z,14.66
2022-09-28T00:28:17.121Z,14.67
2022-09-28T00:29:30.009Z,14.66
2022-09-28T00:30:31.727Z,14.65
2022-09-28T00:31:35.296Z,14.67
2022-09-28T00:32:37.059Z,14.67
2022-09-28T00:33:40.497Z,14.65
2022-09-28T00:34:45.908Z,14.66
2022-09-28T00:35:55.076Z,14.67
2022-09-28T00:36:56.827Z,14.67
2022-09-28T00:37:58.562Z,14.68
2022-09-28T00:39:08.224Z,14.70
2022-09-28T00:40:10.159Z,14.72
2022-09-28T00:41:12.563Z,14.71
2022-09-28T00:42:22.951Z,14.71
2022-09-28T00:43:25.475Z,14.72
2022-09-28T00:44:27.097Z,14.73
2022-09-28T00:45:28.849Z,14.72
2022-09-28T00:46:36.125Z,14.75
2022-09-28T00:47:51.360Z,14.77
2022-09-28T00:49:03.000Z,14.77
2022-09-28T00:50:18.438Z,14.78
2022-09-28T00:51:20.873Z,14.78
2022-09-28T00:52:54.713Z,14.81
2022-09-28T00:54:00.866Z,14.83
2022-09-28T00:55:08.360Z,14.83
2022-09-28T00:56:19.160Z,14.84
2022-09-28T00:57:23.003Z,14.83
2022-09-28T00:58:33.384Z,14.82
2022-09-28T00:59:35.515Z,14.81
2022-09-28T01:00:40.753Z,14.79
2022-09-28T01:01:42.543Z,14.78
2022-09-28T01:02:46.502Z,14.78
2022-09-28T01:03:48.877Z,14.76
2022-09-28T01:04:52.140Z,14.78
2022-09-28T01:05:58.274Z,14.78
2022-09-28T01:07:00.542Z,14.81
2022-09-28T01:08:03.372Z,14.81
2022-09-28T01:09:10.337Z,14.83
2022-09-28T01:10:13.162Z,14.81
2022-09-28T01:11:14.920Z,14.82
2022-09-28T01:12:16.666Z,14.82
2022-09-28T01:13:20.769Z,14.82
2022-09-28T01:14:25.667Z,14.82
2022-09-28T01:15:30.120Z,14.81
2022-09-28T01:17:15.815Z,14.84
2022-09-28T01:18:27.582Z,14.82
2022-09-28T01:19:55.823Z,14.81
2022-09-28T01:21:09.686Z,14.81
2022-09-28T01:22:52.098Z,14.82
2022-09-28T01:24:33.625Z,14.82
2022-09-28T01:25:58.911Z,14.83
2022-09-28T01:27:20.394Z,14.82
2022-09-28T01:28:28.906Z,14.78
2022-09-28T01:29:57.959Z,14.76
2022-09-28T01:31:16.074Z,14.79
2022-09-28T01:32:47.430Z,14.81
2022-09-28T01:34:20.913Z,14.84
2022-09-28T01:35:48.937Z,14.84
2022-09-28T01:36:56.629Z,14.82
2022-09-28T01:38:19.164Z,14.80
2022-09-28T01:39:42.508Z,14.79
2022-09-28T01:40:47.371Z,14.77
2022-09-28T01:41:55.612Z,14.76
2022-09-28T01:43:18.102Z,14.77
2022-09-28T01:44:23.129Z,14.76
2022-09-28T01:45:36.654Z,14.79
2022-09-28T01:46:50.536Z,14.79
2022-09-28T01:48:02.821Z,14.77
2022-09-28T01:49:16.210Z,14.76
2022-09-28T01:50:25.616Z,14.76
2022-09-28T01:51:44.215Z,14.73
2022-09-28T01:53:01.035Z,14.72
2022-09-28T01:54:13.032Z,14.69
2022-09-28T01:55:44.031Z,14.65
2022-09-28T01:56:57.562Z,14.65
2022-09-28T01:58:14.515Z,14.64
2022-09-28T01:59:30.938Z,14.62
2022-09-28T02:00:38.471Z,14.60
2022-09-28T02:02:39.178Z,14.61
2022-09-28T02:04:00.475Z,14.58
2022-09-28T02:05:13.762Z,14.56
2022-09-28T02:06:24.748Z,14.56
2022-09-28T02:07:39.756Z,14.56
2022-09-28T02:08:54.579Z,14.57
2022-09-28T02:10:03.278Z,14.59
2022-09-28T02:11:19.298Z,14.59
2022-09-28T02:12:35.831Z,14.60
2022-09-28T02:13:44.770Z,14.59
2022-09-28T02:14:52.650Z,14.58
2022-09-28T02:16:09.683Z,14.57
2022-09-28T02:17:12.483Z,14.56
2022-09-28T02:18:14.613Z,14.56
2022-09-28T02:19:22.139Z,14.54
2022-09-28T02:20:25.132Z,14.53
2022-09-28T02:21:41.083Z,14.54
2022-09-28T02:22:56.624Z,14.54
2022-09-28T02:24:08.015Z,14.54
2022-09-28T02:25:13.881Z,14.55
2022-09-28T02:26:19.467Z,14.55
2022-09-28T02:28:04.725Z,14.56
2022-09-28T02:29:06.489Z,14.53
2022-09-28T02:30:09.226Z,14.53
2022-09-28T02:31:11.128Z,14.50
2022-09-28T02:32:13.064Z,14.52
2022-09-28T02:33:35.791Z,14.55
2022-09-28T02:34:37.559Z,14.55
2022-09-28T02:35:42.555Z,14.57
2022-09-28T02:36:46.607Z,14.61
2022-09-28T02:37:50.005Z,14.61
2022-09-28T02:38:52.993Z,14.65
2022-09-28T02:39:55.370Z,14.67
2022-09-28T02:41:23.683Z,14.73
2022-09-28T02:42:39.788Z,14.74
2022-09-28T02:44:05.671Z,14.78
2022-09-28T02:45:47.857Z,14.81
2022-09-28T02:47:10.956Z,14.83
2022-09-28T02:48:55.779Z,14.86
2022-09-28T02:50:37.669Z,14.92
2022-09-28T02:52:15.289Z,14.96
2022-09-28T02:53:50.289Z,14.98
2022-09-28T02:55:18.827Z,15.02
2022-09-28T02:56:26.369Z,15.02
2022-09-28T02:57:42.889Z,15.04
2022-09-28T02:59:20.251Z,15.08
2022-09-28T03:00:24.173Z,15.06
2022-09-28T03:01:48.045Z,15.08
2022-09-28T03:02:55.915Z,15.10
2022-09-28T03:04:18.683Z,15.13
2022-09-28T03:05:26.712Z,15.14
2022-09-28T03:06:55.943Z,15.19
2022-09-28T03:08:26.222Z,15.22
2022-09-28T03:10:01.914Z,15.24
2022-09-28T03:11:12.793Z,15.22
2022-09-28T03:12:19.280Z,15.22
2022-09-28T03:13:22.011Z,15.23
2022-09-28T03:14:24.420Z,15.22
2022-09-28T03:15:29.839Z,15.23
2022-09-28T03:16:32.345Z,15.25
2022-09-28T03:17:34.135Z,15.25
2022-09-28T03:18:36.031Z,15.24
2022-09-28T03:19:38.105Z,15.27
2022-09-28T03:20:39.883Z,15.30
2022-09-28T03:21:41.934Z,15.30
2022-09-28T03:22:52.036Z,15.28
2022-09-28T03:24:06.230Z,15.32
2022-09-28T03:25:08.720Z,15.32
2022-09-28T03:26:14.621Z,15.37
2022-09-28T03:27:16.404Z,15.37
2022-09-28T03:28:18.161Z,15.37
2022-09-28T03:29:20.524Z,15.38
2022-09-28T03:30:22.428Z,15.38
2022-09-28T03:31:24.498Z,15.42
2022-09-28T03:32:26.292Z,15.43
2022-09-28T03:33:28.053Z,15.44
2022-09-28T03:34:29.747Z,15.44
2022-09-28T03:35:31.616Z,15.46
2022-09-28T03:36:33.353Z,15.46
2022-09-28T03:37:35.899Z,15.47
2022-09-28T03:38:38.502Z,15.45
2022-09-28T03:39:40.261Z,15.46
2022-09-28T03:40:41.989Z,15.45
2022-09-28T03:41:43.732Z,15.46
2022-09-28T03:42:46.662Z,15.47
2022-09-28T03:43:48.533Z,15.46
2022-09-28T03:44:50.343Z,15.48
2022-09-28T03:46:00.572Z,15.47
2022-09-28T03:47:02.328Z,15.48
2022-09-28T03:48:04.249Z,15.48
2022-09-28T03:49:06.017Z,15.49
2022-09-28T03:50:08.337Z,15.47
2022-09-28T03:51:11.503Z,15.49
2022-09-28T03:52:14.809Z,15.49
2022-09-28T03:53:16.537Z,15.49
2022-09-28T03:54:19.003Z,15.51
2022-09-28T03:55:20.731Z,15.50
2022-09-28T03:56:22.513Z,15.51
2022-09-28T03:57:24.274Z,15.52
2022-09-28T03:58:28.542Z,15.52
2022-09-28T03:59:30.734Z,15.52
2022-09-28T04:00:32.802Z,15.52
2022-09-28T04:01:34.703Z,15.51
2022-09-28T04:02:36.621Z,15.53
2022-09-28T04:03:38.645Z,15.53
2022-09-28T04:04:40.360Z,15.54
2022-09-28T04:05:53.455Z,15.56
2022-09-28T04:06:55.249Z,15.55
2022-09-28T04:07:57.768Z,15.54
2022-09-28T04:08:59.720Z,15.54
2022-09-28T04:10:01.430Z,15.53
2022-09-28T04:11:03.321Z,15.51
2022-09-28T04:12:05.921Z,15.54
2022-09-28T04:13:07.633Z,15.54
2022-09-28T04:14:09.504Z,15.52
2022-09-28T04:15:11.246Z,15.52
2022-09-28T04:16:13.095Z,15.53
2022-09-28T04:17:14.851Z,15.53
2022-09-28T04:18:16.582Z,15.53
2022-09-28T04:19:18.659Z,15.51
2022-09-28T04:20:20.506Z,15.52
2022-09-28T04:21:22.242Z,15.52
2022-09-28T04:22:24.200Z,15.53
2022-09-28T04:23:28.047Z,15.52
2022-09-28T04:24:29.753Z,15.51
2022-09-28T04:25:31.476Z,15.54
2022-09-28T04:26:33.205Z,15.52
2022-09-28T04:27:53.614Z,15.52
2022-09-28T04:29:13.908Z,15.51
2022-09-28T04:30:15.742Z,15.51
2022-09-28T04:31:22.203Z,15.51
2022-09-28T04:32:24.119Z,15.50
2022-09-28T04:33:25.834Z,15.49
2022-09-28T04:34:31.913Z,15.48
2022-09-28T04:35:36.961Z,15.49
2022-09-28T04:36:38.725Z,15.50
2022-09-28T04:37:40.806Z,15.50
2022-09-28T04:38:52.746Z,15.50
2022-09-28T04:39:55.116Z,15.51
2022-09-28T04:40:56.904Z,15.50
2022-09-28T04:41:58.658Z,15.52
2022-09-28T04:43:00.391Z,15.51
2022-09-28T04:44:02.465Z,15.52
2022-09-28T04:45:04.783Z,15.51
2022-09-28T04:46:06.771Z,15.50
2022-09-28T04:47:08.559Z,15.50
2022-09-28T04:48:10.272Z,15.49
2022-09-28T04:49:12.075Z,15.49
2022-09-28T04:50:14.017Z,15.49
2022-09-28T04:51:15.743Z,15.48
2022-09-28T04:52:18.689Z,15.49
2022-09-28T04:53:21.033Z,15.50
2022-09-28T04:54:22.759Z,15.49
2022-09-28T04:55:24.589Z,15.48
2022-09-28T04:56:26.372Z,15.48
2022-09-28T04:57:28.129Z,15.50
2022-09-28T04:58:30.795Z,15.48
2022-09-28T04:59:33.380Z,15.50
2022-09-28T05:00:35.136Z,15.49
2022-09-28T05:01:36.914Z,15.49
2022-09-28T05:02:39.136Z,15.51
2022-09-28T05:03:41.945Z,15.52
2022-09-28T05:04:43.707Z,15.50
2022-09-28T05:05:47.113Z,15.48
2022-09-28T05:06:49.171Z,15.51
2022-09-28T05:07:50.877Z,15.51
2022-09-28T05:08:53.837Z,15.52
2022-09-28T05:09:55.839Z,15.53
2022-09-28T05:11:07.644Z,15.54
2022-09-28T05:12:09.743Z,15.53
2022-09-28T05:13:13.896Z,15.54
2022-09-28T05:14:16.319Z,15.52
2022-09-28T05:15:18.060Z,15.52
2022-09-28T05:16:20.401Z,15.53
2022-09-28T05:17:23.088Z,15.54
2022-09-28T05:18:25.580Z,15.54
2022-09-28T05:19:27.436Z,15.55
2022-09-28T05:20:29.568Z,15.54
2022-09-28T05:21:31.336Z,15.54
2022-09-28T05:22:33.625Z,15.54
2022-09-28T05:23:35.429Z,15.54
2022-09-28T05:24:37.203Z,15.54
2022-09-28T05:25:40.078Z,15.56
2022-09-28T05:26:41.859Z,15.56
2022-09-28T05:27:43.658Z,15.54
2022-09-28T05:28:46.059Z,15.55
2022-09-28T05:29:47.833Z,15.54
2022-09-28T05:30:49.740Z,15.56
2022-09-28T05:31:51.513Z,15.54
2022-09-28T05:32:53.862Z,15.56
2022-09-28T05:33:55.710Z,15.54
2022-09-28T05:34:57.472Z,15.54
2022-09-28T05:36:01.607Z,15.55
2022-09-28T05:37:03.707Z,15.54
2022-09-28T05:38:05.708Z,15.56
2022-09-28T05:39:07.645Z,15.56
2022-09-28T05:40:10.440Z,15.53
2022-09-28T05:41:12.613Z,15.54
2022-09-28T05:42:14.361Z,15.57
2022-09-28T05:43:16.210Z,15.57
2022-09-28T05:44:18.031Z,15.56
2022-09-28T05:45:19.870Z,15.58
2022-09-28T05:46:23.599Z,15.58
2022-09-28T05:47:26.958Z,15.57
2022-09-28T05:48:28.733Z,15.57
2022-09-28T05:49:32.036Z,15.58
2022-09-28T05:50:34.028Z,15.58
2022-09-28T05:51:35.796Z,15.59
2022-09-28T05:52:38.764Z,15.58
2022-09-28T05:53:40.574Z,15.59
2022-09-28T05:54:42.332Z,15.58
2022-09-28T05:55:44.167Z,15.57
2022-09-28T05:56:45.916Z,15.57
2022-09-28T05:57:47.646Z,15.58
2022-09-28T05:58:49.433Z,15.57
2022-09-28T05:59:51.149Z,15.59
2022-09-28T06:00:57.127Z,15.58
2022-09-28T06:01:58.947Z,15.57
2022-09-28T06:03:21.413Z,15.60
2022-09-28T06:04:23.144Z,15.57
2022-09-28T06:05:25.493Z,15.54
2022-09-28T06:06:27.220Z,15.54
2022-09-28T06:07:28.970Z,15.55
2022-09-28T06:08:34.161Z,15.55
2022-09-28T06:09:35.875Z,15.56
2022-09-28T06:10:38.311Z,15.57
2022-09-28T06:11:40.072Z,15.54
2022-09-28T06:12:42.145Z,15.56
2022-09-28T06:13:43.868Z,15.57
2022-09-28T06:14:46.574Z,15.56
2022-09-28T06:15:48.282Z,15.59
2022-09-28T06:16:50.148Z,15.57
2022-09-28T06:18:14.844Z,15.63
2022-09-28T06:19:16.595Z,15.58
2022-09-28T06:20:18.328Z,15.57
2022-09-28T06:21:20.147Z,15.59
2022-09-28T06:22:21.854Z,15.57
2022-09-28T06:23:23.840Z,15.56
2022-09-28T06:24:25.563Z,15.57
2022-09-28T06:25:29.917Z,15.59
2022-09-28T06:26:31.725Z,15.58
2022-09-28T06:27:34.399Z,15.58
2022-09-28T06:28:36.375Z,15.58
2022-09-28T06:29:38.095Z,15.58
2022-09-28T06:30:41.918Z,15.56
2022-09-28T06:31:43.766Z,15.59
2022-09-28T06:32:45.476Z,15.59
2022-09-28T06:33:52.326Z,15.59
2022-09-28T06:34:56.325Z,15.58
2022-09-28T06:36:00.034Z,15.60
2022-09-28T06:37:04.545Z,15.58
2022-09-28T06:38:06.930Z,15.59
2022-09-28T06:39:08.767Z,15.57
2022-09-28T06:40:10.722Z,15.57
2022-09-28T06:41:12.579Z,15.58
2022-09-28T06:42:15.518Z,15.60
2022-09-28T06:43:17.314Z,15.59
2022-09-28T06:44:19.184Z,15.59
2022-09-28T06:45:25.205Z,15.58
2022-09-28T06:46:27.170Z,15.59
2022-09-28T06:47:28.942Z,15.58
2022-09-28T06:48:31.654Z,15.59
2022-09-28T06:49:33.398Z,15.58
2022-09-28T06:50:39.529Z,15.58
2022-09-28T06:51:41.269Z,15.60
2022-09-28T06:52:43.013Z,15.59
2022-09-28T06:53:44.732Z,15.60
2022-09-28T06:54:46.829Z,15.60
2022-09-28T06:55:49.065Z,15.59
2022-09-28T06:56:51.488Z,15.60
2022-09-28T06:58:05.693Z,15.63
2022-09-28T06:59:07.475Z,15.61
2022-09-28T07:00:10.505Z,15.63
2022-09-28T07:01:12.310Z,15.65
2022-09-28T07:02:14.525Z,15.65
2022-09-28T07:03:20.760Z,15.65
2022-09-28T07:04:22.497Z,15.65
2022-09-28T07:05:27.267Z,15.65
2022-09-28T07:06:31.405Z,15.65
2022-09-28T07:07:33.193Z,15.65
2022-09-28T07:08:34.922Z,15.66
2022-09-28T07:09:42.228Z,15.67
2022-09-28T07:10:49.613Z,15.68
2022-09-28T07:11:52.588Z,15.65
2022-09-28T07:12:56.785Z,15.68
2022-09-28T07:13:58.498Z,15.69
2022-09-28T07:15:00.297Z,15.69
2022-09-28T07:16:02.214Z,15.70
2022-09-28T07:17:13.606Z,15.70
2022-09-28T07:18:17.761Z,15.69
2022-09-28T07:19:19.537Z,15.70
2022-09-28T07:20:21.322Z,15.72
2022-09-28T07:21:29.802Z,15.74
2022-09-28T07:22:42.329Z,15.74
2022-09-28T07:23:52.695Z,15.74
2022-09-28T07:24:57.520Z,15.74
2022-09-28T07:26:07.406Z,15.75
2022-09-28T07:27:10.229Z,15.75
2022-09-28T07:28:12.137Z,15.74
2022-09-28T07:29:13.839Z,15.76
2022-09-28T07:30:16.288Z,15.77
2022-09-28T07:31:18.095Z,15.77
2022-09-28T07:32:21.893Z,15.79
2022-09-28T07:33:29.321Z,15.78
2022-09-28T07:34:31.081Z,15.80
2022-09-28T07:35:36.391Z,15.80
2022-09-28T07:36:39.093Z,15.81
2022-09-28T07:37:40.918Z,15.81
2022-09-28T07:38:43.920Z,15.83
2022-09-28T07:40:04.961Z,15.84
2022-09-28T07:41:13.872Z,15.83
2022-09-28T07:42:16.025Z,15.85
2022-09-28T07:43:20.675Z,15.86
2022-09-28T07:44:22.552Z,15.86
2022-09-28T07:45:24.420Z,15.88
2022-09-28T07:46:26.235Z,15.90
2022-09-28T07:47:33.911Z,15.90
2022-09-28T07:48:37.745Z,15.91
2022-09-28T07:49:39.513Z,15.96
2022-09-28T07:50:41.694Z,15.98
2022-09-28T07:51:44.708Z,16.01
2022-09-28T07:52:46.528Z,16.00
2022-09-28T07:53:48.283Z,16.01
2022-09-28T07:54:52.084Z,16.03
2022-09-28T07:55:56.708Z,16.03
2022-09-28T07:56:58.511Z,16.06
2022-09-28T07:58:01.552Z,16.05
2022-09-28T07:59:03.281Z,16.05
2022-09-28T08:00:08.828Z,16.06
2022-09-28T08:01:14.855Z,16.07
2022-09-28T08:02:20.525Z,16.07
2022-09-28T08:03:22.515Z,16.10
2022-09-28T08:04:25.256Z,16.09
2022-09-28T08:05:31.155Z,16.10
2022-09-28T08:06:32.902Z,16.12
2022-09-28T08:07:34.715Z,16.16
2022-09-28T08:08:36.672Z,16.14
2022-09-28T08:09:38.699Z,16.14
2022-09-28T08:10:46.805Z,16.17
2022-09-28T08:11:49.735Z,16.17
2022-09-28T08:13:03.625Z,16.20
2022-09-28T08:14:06.348Z,16.19
2022-09-28T08:15:10.315Z,16.22
2022-09-28T08:16:12.275Z,16.22
2022-09-28T08:17:15.552Z,16.26
2022-09-28T08:18:18.129Z,16.30
2022-09-28T08:19:19.854Z,16.29
2022-09-28T08:20:40.227Z,16.32
2022-09-28T08:21:44.811Z,16.34
2022-09-28T08:22:46.567Z,16.36
2022-09-28T08:23:48.605Z,16.38
2022-09-28T08:24:50.517Z,16.37
2022-09-28T08:25:54.126Z,16.38
2022-09-28T08:26:57.105Z,16.41
2022-09-28T08:28:00.054Z,16.44
2022-09-28T08:29:01.903Z,16.47
2022-09-28T08:30:04.158Z,16.48
2022-09-28T08:31:07.281Z,16.49
2022-09-28T08:32:10.491Z,16.53
2022-09-28T08:33:13.506Z,16.55
2022-09-28T08:34:15.235Z,16.55
2022-09-28T08:35:17.527Z,16.56
2022-09-28T08:36:20.570Z,16.58
2022-09-28T08:37:22.519Z,16.58
2022-09-28T08:38:26.858Z,16.61
2022-09-28T08:39:28.732Z,16.63
2022-09-28T08:40:37.912Z,16.64
2022-09-28T08:41:50.470Z,16.65
2022-09-28T08:43:04.255Z,16.68
2022-09-28T08:44:06.133Z,16.67
2022-09-28T08:45:23.265Z,16.70
2022-09-28T08:46:33.608Z,16.69
2022-09-28T08:48:14.517Z,16.72
2022-09-28T08:49:34.716Z,16.74
2022-09-28T08:50:51.007Z,16.73
2022-09-28T08:52:16.256Z,16.74
2022-09-28T08:53:45.873Z,16.75
2022-09-28T08:54:56.160Z,16.73
2022-09-28T08:56:02.460Z,16.72
2022-09-28T08:57:15.677Z,16.73
2022-09-28T08:58:33.553Z,16.76
2022-09-28T08:59:54.261Z,16.75
2022-09-28T09:00:56.189Z,16.71
2022-09-28T09:02:09.727Z,16.71
2022-09-28T09:03:25.794Z,16.72
2022-09-28T09:04:27.735Z,16.69
2022-09-28T09:05:49.387Z,16.71
2022-09-28T09:07:21.431Z,16.73
2022-09-28T09:08:49.984Z,16.73
2022-09-28T09:10:50.649Z,16.76
2022-09-28T09:12:34.791Z,16.74
2022-09-28T09:14:43.198Z,16.77
2022-09-28T09:16:20.360Z,16.77
2022-09-28T09:18:08.771Z,16.75
2022-09-28T09:19:45.688Z,16.76
2022-09-28T09:20:57.340Z,16.73
2022-09-28T09:22:16.745Z,16.74
2022-09-28T09:23:45.068Z,16.76
2022-09-28T09:25:00.891Z,16.76
2022-09-28T09:26:26.591Z,16.80
2022-09-28T09:27:32.244Z,16.78
2022-09-28T09:29:07.606Z,16.82
2022-09-28T09:30:19.172Z,16.82
2022-09-28T09:32:06.345Z,16.85
2022-09-28T09:33:49.766Z,16.86
2022-09-28T09:35:12.491Z,16.86
2022-09-28T09:36:23.305Z,16.90
2022-09-28T09:38:00.055Z,16.92
2022-09-28T09:39:51.250Z,16.92
2022-09-28T09:41:38.122Z,16.95
2022-09-28T09:43:28.002Z,16.97
2022-09-28T09:45:12.307Z,17.04
2022-09-28T09:46:29.453Z,17.14
2022-09-28T09:47:39.856Z,17.17
2022-09-28T09:48:59.208Z,17.20
2022-09-28T09:50:12.074Z,17.22
2022-09-28T09:51:27.281Z,17.22
2022-09-28T09:52:52.459Z,17.32
2022-09-28T09:54:31.437Z,17.51
2022-09-28T09:55:43.703Z,17.68
2022-09-28T09:57:15.806Z,17.84
2022-09-28T09:58:26.384Z,17.93
2022-09-28T09:59:36.770Z,18.12
2022-09-28T10:00:47.163Z,18.22
2022-09-28T10:01:50.154Z,18.30
2022-09-28T10:02:53.482Z,18.39
2022-09-28T10:03:58.857Z,18.48
2022-09-28T10:05:25.473Z,18.71
2022-09-28T10:06:34.576Z,18.74
2022-09-28T10:08:16.232Z,18.89
2022-09-28T10:09:27.852Z,18.87
2022-09-28T10:10:49.029Z,19.03
2022-09-28T10:11:52.132Z,19.10
2022-09-28T10:12:54.627Z,19.18
2022-09-28T10:13:57.746Z,19.28
2022-09-28T10:15:03.016Z,19.36
2022-09-28T10:16:07.356Z,19.43
2022-09-28T10:17:16.373Z,19.52
2022-09-28T10:18:21.366Z,19.52
2022-09-28T10:19:33.256Z,19.62
2022-09-28T10:20:39.943Z,19.66
2022-09-28T10:21:42.304Z,19.68
2022-09-28T10:22:44.557Z,19.78
2022-09-28T10:23:50.118Z,19.86
2022-09-28T10:24:57.444Z,20.00
2022-09-28T10:26:25.587Z,20.28
2022-09-28T10:27:35.184Z,20.46
2022-09-28T10:28:50.517Z,20.65
2022-09-28T10:30:02.347Z,20.85
2022-09-28T10:31:44.631Z,21.12
2022-09-28T10:32:50.025Z,21.19
2022-09-28T10:33:53.727Z,21.31
2022-09-28T10:35:18.567Z,21.56
2022-09-28T10:36:20.287Z,21.61
2022-09-28T10:37:22.893Z,21.66
2022-09-28T10:38:24.840Z,21.72
2022-09-28T10:39:47.535Z,21.83
2022-09-28T10:41:09.385Z,21.84
2022-09-28T10:42:28.065Z,21.78
2022-09-28T10:43:36.885Z,21.69
2022-09-28T10:45:25.046Z,21.72
2022-09-28T10:46:27.256Z,21.72
2022-09-28T10:47:32.650Z,21.70
2022-09-28T10:48:58.375Z,21.83
2022-09-28T10:50:00.965Z,21.89
2022-09-28T10:51:08.782Z,21.96
2022-09-28T10:52:36.258Z,22.11
2022-09-28T10:53:39.859Z,22.16
2022-09-28T10:54:53.529Z,22.20
2022-09-28T10:56:19.618Z,22.28
2022-09-28T10:57:39.786Z,22.33
2022-09-28T10:58:42.769Z,22.36
2022-09-28T10:59:46.608Z,22.37
2022-09-28T11:00:50.118Z,22.40
2022-09-28T11:02:24.504Z,22.41
2022-09-28T11:03:29.640Z,22.42
2022-09-28T11:04:41.765Z,22.42
2022-09-28T11:06:05.322Z,22.46
2022-09-28T11:07:20.145Z,22.48
2022-09-28T11:08:41.602Z,22.50
2022-09-28T11:09:49.078Z,22.52
2022-09-28T11:11:06.914Z,22.50
2022-09-28T11:12:18.348Z,22.50
2022-09-28T11:13:20.084Z,22.46
2022-09-28T11:14:39.587Z,22.46
2022-09-28T11:15:44.408Z,22.40
2022-09-28T11:16:46.203Z,22.37
2022-09-28T11:17:48.268Z,22.33
2022-09-28T11:18:50.162Z,22.31
2022-09-28T11:19:53.699Z,22.25
2022-09-28T11:21:12.823Z,22.19
2022-09-28T11:22:38.000Z,22.11
2022-09-28T11:23:41.963Z,22.04
2022-09-28T11:24:43.669Z,21.98
2022-09-28T11:26:06.665Z,21.92
2022-09-28T11:27:22.543Z,21.84
2022-09-28T11:28:32.714Z,21.82
2022-09-28T11:29:46.056Z,21.77
2022-09-28T11:30:54.490Z,21.72
2022-09-28T11:32:03.209Z,21.67
2022-09-28T11:33:35.678Z,21.66
2022-09-28T11:34:59.102Z,21.61
2022-09-28T11:36:14.061Z,21.58
2022-09-28T11:37:32.430Z,21.57
2022-09-28T11:38:44.043Z,21.53
2022-09-28T11:40:38.328Z,21.50
2022-09-28T11:41:54.976Z,21.39
2022-09-28T11:43:31.841Z,21.32
2022-09-28T11:44:44.802Z,21.25
2022-09-28T11:46:08.461Z,21.23
2022-09-28T11:47:52.754Z,21.15
2022-09-28T11:49:37.795Z,21.10
2022-09-28T11:51:03.985Z,21.05
2022-09-28T11:52:24.523Z,21.02
2022-09-28T11:53:42.264Z,20.98
2022-09-28T11:55:26.707Z,20.99
2022-09-28T11:56:39.672Z,20.93
2022-09-28T11:57:48.715Z,20.85
2022-09-28T11:58:58.476Z,20.86
2022-09-28T12:00:15.667Z,20.87
2022-09-28T12:01:42.958Z,20.87
2022-09-28T12:03:05.111Z,20.84
2022-09-28T12:04:14.788Z,20.81
2022-09-28T12:05:37.199Z,20.82
2022-09-28T12:06:49.631Z,20.79
2022-09-28T12:08:07.594Z,20.78
2022-09-28T12:09:50.022Z,20.81
2022-09-28T12:11:19.310Z,20.76
2022-09-28T12:12:45.521Z,20.75
2022-09-28T12:13:51.442Z,20.69
2022-09-28T12:15:02.927Z,20.67
2022-09-28T12:18:12.976Z,20.67
2022-09-28T12:19:32.206Z,20.60
2022-09-28T12:20:44.785Z,20.55
2022-09-28T12:21:55.074Z,20.52
2022-09-28T12:23:08.150Z,20.51
2022-09-28T12:24:34.769Z,20.49
2022-09-28T12:25:52.103Z,20.47
2022-09-28T12:27:01.764Z,20.44
2022-09-28T12:28:16.248Z,20.41
2022-09-28T12:29:32.723Z,20.39
2022-09-28T12:30:40.651Z,20.37
2022-09-28T12:32:38.229Z,20.39
2022-09-28T12:33:44.182Z,20.33
2022-09-28T12:34:45.956Z,20.29
2022-09-28T12:36:06.077Z,20.33
2022-09-28T12:37:34.010Z,20.31
2022-09-28T12:39:31.008Z,20.32
2022-09-28T12:41:01.835Z,20.32
2022-09-28T12:42:36.818Z,20.31
2022-09-28T12:44:18.624Z,20.30
2022-09-28T12:45:42.982Z,20.28
2022-09-28T12:47:23.548Z,20.30
2022-09-28T12:48:26.022Z,20.24
2022-09-28T12:51:43.788Z,20.35
2022-09-28T12:53:39.610Z,20.41
2022-09-28T12:55:31.165Z,20.43
2022-09-28T12:56:52.020Z,20.43
2022-09-28T12:58:19.038Z,20.42
2022-09-28T12:59:42.233Z,20.49
2022-09-28T13:01:31.531Z,20.57
2022-09-28T13:03:07.117Z,20.60
2022-09-28T13:04:35.755Z,20.64
2022-09-28T13:06:12.773Z,20.70
2022-09-28T13:07:42.791Z,20.76
2022-09-28T13:09:15.610Z,20.75
2022-09-28T13:10:46.618Z,20.78
2022-09-28T13:11:54.755Z,20.75
2022-09-28T13:13:26.365Z,20.80
2022-09-28T13:14:51.257Z,20.78
2022-09-28T13:16:30.760Z,20.88
2022-09-28T13:17:52.503Z,20.87
2022-09-28T13:19:13.065Z,20.83
2022-09-28T13:20:37.454Z,20.86
2022-09-28T13:21:57.732Z,20.83
2022-09-28T13:23:19.727Z,20.85
2022-09-28T13:24:32.673Z,20.83
2022-09-28T13:25:43.452Z,20.82
2022-09-28T13:26:47.844Z,20.77
2022-09-28T13:28:03.750Z,20.79
2022-09-28T13:29:17.605Z,20.79
2022-09-28T13:30:19.499Z,20.77
2022-09-28T13:31:31.813Z,20.76
2022-09-28T13:32:38.849Z,20.73
2022-09-28T13:33:45.644Z,20.73
2022-09-28T13:34:50.424Z,20.69
2022-09-28T13:35:52.157Z,20.68
2022-09-28T13:37:21.758Z,20.67
2022-09-28T13:38:23.437Z,20.60
2022-09-28T13:39:37.560Z,20.57
2022-09-28T13:41:03.926Z,20.55
2022-09-28T13:42:09.159Z,20.45
2022-09-28T13:43:34.192Z,20.45
2022-09-28T13:45:26.486Z,20.43
2022-09-28T13:46:46.459Z,20.34
2022-09-28T13:47:51.568Z,20.31
2022-09-28T13:49:14.435Z,20.27
2022-09-28T13:50:48.212Z,20.22
2022-09-28T13:52:06.903Z,20.16
2022-09-28T13:53:41.897Z,20.12
2022-09-28T13:55:23.613Z,20.05
2022-09-28T13:56:58.059Z,19.95
2022-09-28T13:58:36.320Z,19.88
2022-09-28T14:00:00.108Z,19.80
2022-09-28T14:01:10.599Z,19.76
2022-09-28T14:02:40.004Z,19.74
2022-09-28T14:04:18.984Z,19.69
2022-09-28T14:05:24.925Z,19.65
2022-09-28T14:06:32.753Z,19.62
2022-09-28T14:07:34.430Z,19.61
2022-09-28T14:09:24.429Z,19.63
2022-09-28T14:10:52.026Z,19.59
2022-09-28T14:11:59.110Z,19.55
2022-09-28T14:13:03.150Z,19.53
2022-09-28T14:14:14.003Z,19.51
2022-09-28T14:15:37.408Z,19.53
2022-09-28T14:16:42.057Z,19.48
2022-09-28T14:17:43.746Z,19.46
2022-09-28T14:19:12.674Z,19.49
2022-09-28T14:20:18.774Z,19.47
2022-09-28T14:22:11.364Z,19.50
2022-09-28T14:23:29.178Z,19.46
2022-09-28T14:25:13.545Z,19.47
2022-09-28T14:26:52.376Z,19.45
2022-09-28T14:28:18.798Z,19.38
2022-09-28T14:29:28.617Z,19.37
2022-09-28T14:30:42.536Z,19.36
2022-09-28T14:31:45.230Z,19.30
2022-09-28T14:32:59.006Z,19.34
2022-09-28T14:34:03.303Z,19.31
2022-09-28T14:35:32.442Z,19.31
2022-09-28T14:37:07.760Z,19.33
2022-09-28T14:38:43.781Z,19.29
2022-09-28T14:40:05.858Z,19.25
2022-09-28T14:41:17.811Z,19.23
2022-09-28T14:42:24.790Z,19.21
2022-09-28T14:43:44.764Z,19.22
2022-09-28T14:45:06.848Z,19.20
2022-09-28T14:46:12.178Z,19.16
2022-09-28T14:47:44.685Z,19.20
2022-09-28T14:49:03.646Z,19.19
2022-09-28T14:50:20.337Z,19.16
2022-09-28T14:51:26.189Z,19.13
2022-09-28T14:52:50.440Z,19.14
2022-09-28T14:54:02.515Z,19.12
2022-09-28T14:55:14.980Z,19.11
2022-09-28T14:56:19.143Z,19.10
2022-09-28T14:57:25.914Z,19.10
2022-09-28T14:58:29.787Z,19.10
2022-09-28T14:59:36.082Z,19.10
2022-09-28T15:00:42.403Z,19.08
2022-09-28T15:02:03.155Z,19.11
2022-09-28T15:03:10.215Z,19.08
2022-09-28T15:04:15.292Z,19.07
2022-09-28T15:05:26.836Z,19.08
2022-09-28T15:06:49.085Z,19.10
2022-09-28T15:07:53.584Z,19.06
2022-09-28T15:08:55.295Z,19.04
2022-09-28T15:09:59.692Z,19.03
2022-09-28T15:11:01.980Z,19.02
2022-09-28T15:12:27.399Z,19.07
2022-09-28T15:13:29.969Z,19.03
2022-09-28T15:14:45.167Z,19.05
2022-09-28T15:15:54.083Z,19.00
2022-09-28T15:17:02.811Z,19.00
2022-09-28T15:19:04.159Z,19.04
2022-09-28T15:20:20.910Z,18.99
2022-09-28T15:21:23.767Z,18.97
2022-09-28T15:22:25.624Z,18.96